createdAt,value
2019-03-23T00:00:47.352Z,8.30
2019-03-23T00:03:18.274Z,8.30
2019-03-23T00:05:52.217Z,8.30
2019-03-23T00:08:23.285Z,8.30
2019-03-23T00:10:54.361Z,8.20
2019-03-23T00:13:25.556Z,8.20
2019-03-23T00:15:57.866Z,8.20
2019-03-23T00:18:28.826Z,8.20
2019-03-23T00:20:59.608Z,8.20
2019-03-23T00:23:30.507Z,8.20
2019-03-23T00:26:01.226Z,8.20
2019-03-23T00:28:32.198Z,8.20
2019-03-23T00:31:02.939Z,8.20
2019-03-23T00:33:33.816Z,8.20
2019-03-23T00:36:04.594Z,8.20
2019-03-23T00:38:35.513Z,8.20
2019-03-23T00:41:06.314Z,8.10
2019-03-23T00:43:38.518Z,8.10
2019-03-23T00:46:09.344Z,8.00
2019-03-23T00:48:40.475Z,8.00
2019-03-23T00:51:11.305Z,7.90
2019-03-23T00:53:42.126Z,7.80
2019-03-23T00:56:12.931Z,7.80
2019-03-23T00:58:43.714Z,7.70
2019-03-23T01:01:14.590Z,7.60
2019-03-23T01:03:46.423Z,7.60
2019-03-23T01:06:17.200Z,7.50
2019-03-23T01:08:48.171Z,7.50
2019-03-23T01:11:18.930Z,7.50
2019-03-23T01:13:49.870Z,7.50
2019-03-23T01:16:20.701Z,7.50
2019-03-23T01:18:51.653Z,7.40
2019-03-23T01:21:26.026Z,7.40
2019-03-23T01:23:56.910Z,7.40
2019-03-23T01:26:27.750Z,7.30
2019-03-23T01:28:58.661Z,7.30
2019-03-23T01:31:29.487Z,7.30
2019-03-23T01:34:04.249Z,7.30
2019-03-23T01:36:37.210Z,7.20
2019-03-23T01:39:08.487Z,7.20
2019-03-23T01:41:39.473Z,7.20
2019-03-23T01:44:10.237Z,7.10
2019-03-23T01:46:41.137Z,7.10
2019-03-23T01:49:11.941Z,7.00
2019-03-23T01:51:42.766Z,7.00
2019-03-23T01:54:13.581Z,6.90
2019-03-23T01:56:44.334Z,6.90
2019-03-23T01:59:15.154Z,6.80
2019-03-23T02:01:45.974Z,6.70
2019-03-23T02:04:16.746Z,6.70
2019-03-23T02:06:47.507Z,6.70
2019-03-23T02:09:18.427Z,6.60
2019-03-23T02:11:49.319Z,6.60
2019-03-23T02:14:20.220Z,6.50
2019-03-23T02:16:51.017Z,6.50
2019-03-23T02:19:21.927Z,6.50
2019-03-23T02:21:52.777Z,6.50
2019-03-23T02:24:23.584Z,6.50
2019-03-23T02:26:54.309Z,6.50
2019-03-23T02:29:25.123Z,6.50
2019-03-23T02:31:55.931Z,6.50
2019-03-23T02:34:26.820Z,6.50
2019-03-23T02:36:57.727Z,6.50
2019-03-23T02:39:29.563Z,6.50
2019-03-23T02:42:00.409Z,6.50
2019-03-23T02:44:31.327Z,6.50
2019-03-23T02:47:04.348Z,6.60
2019-03-23T02:49:37.093Z,6.60
2019-03-23T02:52:07.969Z,6.60
2019-03-23T02:54:40.912Z,6.60
2019-03-23T02:57:11.690Z,6.60
2019-03-23T02:59:42.565Z,6.70
2019-03-23T03:02:14.409Z,6.70
2019-03-23T03:04:45.225Z,6.70
2019-03-23T03:07:15.932Z,6.70
2019-03-23T03:09:46.790Z,6.70
2019-03-23T03:12:17.566Z,6.60
2019-03-23T03:14:48.554Z,6.70
2019-03-23T03:17:19.358Z,6.70
2019-03-23T03:19:50.201Z,6.60
2019-03-23T03:22:21.033Z,6.60
2019-03-23T03:24:51.917Z,6.70
2019-03-23T03:27:22.707Z,6.70
2019-03-23T03:29:53.581Z,6.70
2019-03-23T03:32:24.355Z,6.70
2019-03-23T03:34:55.225Z,6.70
2019-03-23T03:37:25.959Z,6.70
2019-03-23T03:39:56.914Z,6.70
2019-03-23T03:42:27.659Z,6.70
2019-03-23T03:44:58.456Z,6.70
2019-03-23T03:47:29.213Z,6.60
2019-03-23T03:50:00.035Z,6.60
2019-03-23T03:52:30.848Z,6.60
2019-03-23T03:55:01.600Z,6.60
2019-03-23T03:57:32.569Z,6.60
2019-03-23T04:00:03.337Z,6.60
2019-03-23T04:02:35.412Z,6.70
2019-03-23T04:05:07.950Z,6.70
2019-03-23T04:07:38.805Z,6.70
2019-03-23T04:10:15.275Z,6.70
2019-03-23T04:12:46.047Z,6.70
2019-03-23T04:15:16.847Z,6.60
2019-03-23T04:17:50.033Z,6.60
2019-03-23T04:20:20.932Z,6.60
2019-03-23T04:22:52.806Z,6.60
2019-03-23T04:25:23.706Z,6.50
2019-03-23T04:27:54.488Z,6.50
2019-03-23T04:30:25.387Z,6.40
2019-03-23T04:32:56.234Z,6.40
2019-03-23T04:35:27.053Z,6.30
2019-03-23T04:37:57.787Z,6.30
2019-03-23T04:40:28.728Z,6.20
2019-03-23T04:42:59.573Z,6.20
2019-03-23T04:45:30.394Z,6.20
2019-03-23T04:48:01.260Z,6.20
2019-03-23T04:50:32.140Z,6.20
2019-03-23T04:53:02.968Z,6.20
2019-03-23T04:55:33.835Z,6.20
2019-03-23T04:58:04.560Z,6.20
2019-03-23T05:00:35.486Z,6.20
2019-03-23T05:03:06.298Z,6.20
2019-03-23T05:05:37.111Z,6.20
2019-03-23T05:08:07.918Z,6.20
2019-03-23T05:10:38.758Z,6.30
2019-03-23T05:13:09.568Z,6.30
2019-03-23T05:15:40.409Z,6.40
2019-03-23T05:18:11.582Z,6.50
2019-03-23T05:20:42.393Z,6.70
2019-03-23T05:23:13.367Z,6.80
2019-03-23T05:25:45.415Z,7.00
2019-03-23T05:28:21.447Z,7.20
2019-03-23T05:30:54.694Z,7.50
2019-03-23T05:33:25.505Z,7.70
2019-03-23T05:35:56.322Z,8.00
2019-03-23T05:38:27.102Z,8.30
2019-03-23T05:40:57.995Z,8.60
2019-03-23T05:43:28.769Z,8.90
2019-03-23T05:45:59.590Z,9.20
2019-03-23T05:48:30.410Z,9.60
2019-03-23T05:51:01.235Z,9.80
2019-03-23T05:53:32.054Z,10.20
2019-03-23T05:56:02.883Z,10.50
2019-03-23T05:58:36.669Z,10.80
2019-03-23T06:01:06.358Z,11.20
2019-03-23T06:03:39.200Z,11.50
2019-03-23T06:06:13.203Z,11.90
2019-03-23T06:08:54.232Z,12.20
2019-03-23T06:11:16.550Z,12.60
2019-03-23T06:13:50.032Z,12.90
2019-03-23T06:16:21.549Z,13.20
2019-03-23T06:18:52.534Z,13.60
2019-03-23T06:21:24.327Z,13.90
2019-03-23T06:23:55.222Z,14.20
2019-03-23T06:26:26.053Z,14.40
2019-03-23T06:28:57.004Z,14.70
2019-03-23T06:31:27.781Z,14.90
2019-03-23T06:33:59.590Z,15.00
2019-03-23T06:36:30.354Z,15.20
2019-03-23T06:39:05.359Z,15.30
2019-03-23T06:41:33.690Z,15.40
2019-03-23T06:44:04.535Z,15.60
2019-03-23T06:46:35.298Z,15.80
2019-03-23T06:49:06.047Z,16.00
2019-03-23T06:51:36.941Z,16.20
2019-03-23T06:54:07.765Z,16.40
2019-03-23T06:56:38.578Z,16.50
2019-03-23T06:59:09.414Z,16.80
2019-03-23T07:01:40.123Z,17.10
2019-03-23T07:04:11.036Z,17.30
2019-03-23T07:06:41.798Z,17.40
2019-03-23T07:09:16.353Z,17.40
2019-03-23T07:11:45.078Z,17.40
2019-03-23T07:14:16.001Z,17.50
2019-03-23T07:16:46.826Z,17.60
2019-03-23T07:19:17.635Z,17.70
2019-03-23T07:21:48.398Z,17.80
2019-03-23T07:24:19.306Z,18.00
2019-03-23T07:26:50.099Z,18.30
2019-03-23T07:29:20.997Z,18.40
2019-03-23T07:31:51.945Z,18.40
2019-03-23T07:34:22.824Z,18.60
2019-03-23T07:36:55.255Z,18.70
2019-03-23T07:39:28.234Z,18.90
2019-03-23T07:41:58.898Z,19.00
2019-03-23T07:44:33.150Z,19.30
2019-03-23T07:47:03.960Z,19.50
2019-03-23T07:49:34.833Z,19.70
2019-03-23T07:52:05.662Z,19.90
2019-03-23T07:54:36.516Z,20.20
2019-03-23T07:57:07.339Z,20.40
2019-03-23T07:59:38.137Z,20.50
2019-03-23T08:02:08.881Z,20.50
2019-03-23T08:04:39.714Z,20.50
2019-03-23T08:07:10.531Z,20.90
2019-03-23T08:09:41.362Z,21.30
2019-03-23T08:12:12.105Z,21.60
2019-03-23T08:14:42.938Z,22.00
2019-03-23T08:17:13.722Z,22.10
2019-03-23T08:19:44.562Z,22.40
2019-03-23T08:22:15.312Z,23.00
2019-03-23T08:24:46.086Z,23.10
2019-03-23T08:27:16.851Z,23.60
2019-03-23T08:29:47.686Z,23.90
2019-03-23T08:32:18.591Z,24.10
2019-03-23T08:34:49.470Z,24.50
2019-03-23T08:37:20.246Z,24.70
2019-03-23T08:39:51.277Z,24.90
2019-03-23T08:42:22.170Z,24.90
2019-03-23T08:44:53.046Z,25.10
2019-03-23T08:47:24.530Z,25.20
2019-03-23T08:49:55.436Z,25.30
2019-03-23T08:52:51.883Z,25.70
2019-03-23T08:55:22.701Z,26.10
2019-03-23T08:57:53.933Z,26.40
2019-03-23T09:00:26.048Z,26.70
2019-03-23T09:02:58.447Z,26.90
2019-03-23T09:05:31.405Z,27.30
2019-03-23T09:08:02.627Z,27.60
2019-03-23T09:10:33.644Z,28.10
2019-03-23T09:13:04.560Z,28.50
2019-03-23T09:15:35.732Z,28.60
2019-03-23T09:18:06.642Z,29.00
2019-03-23T09:20:37.659Z,28.90
2019-03-23T09:23:10.841Z,29.00
2019-03-23T09:25:41.794Z,29.00
2019-03-23T09:28:12.659Z,29.10
2019-03-23T09:30:43.405Z,29.20
2019-03-23T09:33:15.298Z,29.20
2019-03-23T09:35:46.117Z,29.40
2019-03-23T09:38:17.058Z,29.50
2019-03-23T09:40:47.846Z,29.50
2019-03-23T09:43:18.804Z,29.20
2019-03-23T09:45:49.665Z,29.20
2019-03-23T09:48:21.679Z,29.40
2019-03-23T09:50:52.572Z,29.70
2019-03-23T09:53:23.422Z,29.80
2019-03-23T09:55:54.190Z,29.90
2019-03-23T09:58:25.050Z,30.20
2019-03-23T10:00:56.006Z,30.50
2019-03-23T10:03:26.964Z,30.50
2019-03-23T10:05:57.758Z,30.80
2019-03-23T10:08:28.749Z,31.00
2019-03-23T10:10:59.514Z,31.20
2019-03-23T10:13:31.846Z,31.50
2019-03-23T10:16:02.772Z,31.90
2019-03-23T10:18:33.727Z,32.30
2019-03-23T10:21:06.177Z,32.60
2019-03-23T10:23:37.038Z,32.90
2019-03-23T10:26:09.096Z,33.20
2019-03-23T10:28:55.585Z,33.50
2019-03-23T10:31:27.555Z,33.60
2019-03-23T10:33:58.610Z,33.20
2019-03-23T10:36:29.892Z,32.70
2019-03-23T10:39:00.801Z,32.50
2019-03-23T10:41:33.227Z,32.50
2019-03-23T10:44:04.073Z,32.50
2019-03-23T10:46:35.191Z,32.50
2019-03-23T10:49:07.160Z,32.40
2019-03-23T10:51:37.952Z,32.30
2019-03-23T10:54:09.023Z,32.20
2019-03-23T10:56:39.974Z,32.20
2019-03-23T10:59:11.174Z,32.50
2019-03-23T11:01:41.976Z,32.70
2019-03-23T11:04:13.135Z,33.00
2019-03-23T11:06:44.022Z,33.20
2019-03-23T11:09:14.998Z,33.60
2019-03-23T11:11:45.964Z,33.90
2019-03-23T11:14:16.928Z,34.20
2019-03-23T11:16:47.697Z,34.40
2019-03-23T11:19:18.930Z,34.50
2019-03-23T11:21:49.876Z,34.50
2019-03-23T11:24:20.950Z,34.50
2019-03-23T11:26:51.755Z,34.40
2019-03-23T11:29:22.597Z,34.50
2019-03-23T11:31:53.957Z,34.40
2019-03-23T11:34:24.989Z,34.30
2019-03-23T11:36:55.918Z,34.30
2019-03-23T11:39:28.677Z,34.30
2019-03-23T11:41:59.517Z,34.40
2019-03-23T11:44:30.372Z,34.50
2019-03-23T11:47:01.364Z,34.60
2019-03-23T11:49:32.291Z,34.70
2019-03-23T11:52:03.218Z,34.50
2019-03-23T11:54:35.122Z,34.50
2019-03-23T11:57:06.060Z,34.50
2019-03-23T11:59:37.009Z,34.50
2019-03-23T12:02:08.966Z,34.50
2019-03-23T12:04:45.742Z,34.50
2019-03-23T12:07:16.660Z,34.50
2019-03-23T12:09:47.571Z,34.60
2019-03-23T12:12:18.412Z,34.60
2019-03-23T12:14:49.402Z,34.70
2019-03-23T12:17:20.307Z,34.70
2019-03-23T12:19:51.166Z,34.80
2019-03-23T12:22:21.921Z,34.80
2019-03-23T12:24:52.854Z,34.90
2019-03-23T12:27:24.757Z,35.00
2019-03-23T12:30:03.117Z,35.20
2019-03-23T12:32:28.203Z,35.30
2019-03-23T12:34:59.170Z,35.50
2019-03-23T12:37:29.949Z,35.70
2019-03-23T12:40:00.851Z,35.70
2019-03-23T12:42:31.758Z,35.90
2019-03-23T12:45:02.628Z,36.20
2019-03-23T12:47:33.843Z,36.30
2019-03-23T12:50:05.101Z,36.30
2019-03-23T12:52:36.002Z,36.30
2019-03-23T12:55:07.004Z,36.40
2019-03-23T12:57:37.919Z,36.40
2019-03-23T13:00:10.821Z,36.50
2019-03-23T13:02:41.758Z,36.70
2019-03-23T13:05:12.651Z,36.70
2019-03-23T13:07:43.738Z,36.90
2019-03-23T13:10:14.731Z,36.80
2019-03-23T13:12:45.722Z,36.90
2019-03-23T13:15:16.966Z,37.10
2019-03-23T13:17:47.798Z,37.20
2019-03-23T13:20:18.761Z,37.00
2019-03-23T13:22:49.794Z,36.90
2019-03-23T13:25:20.686Z,37.10
2019-03-23T13:27:51.578Z,37.30
2019-03-23T13:30:22.576Z,37.40
2019-03-23T13:32:53.383Z,37.50
2019-03-23T13:35:24.266Z,37.40
2019-03-23T13:37:55.273Z,37.20
2019-03-23T13:40:26.882Z,37.30
2019-03-23T13:42:57.760Z,37.30
2019-03-23T13:45:28.774Z,37.20
2019-03-23T13:47:59.560Z,37.20
2019-03-23T13:50:33.241Z,37.10
2019-03-23T13:53:04.167Z,37.10
2019-03-23T13:55:35.077Z,37.10
2019-03-23T13:58:12.986Z,37.20
2019-03-23T14:00:43.807Z,37.10
2019-03-23T14:03:14.739Z,36.90
2019-03-23T14:05:48.684Z,36.70
2019-03-23T14:08:19.741Z,36.50
2019-03-23T14:10:50.890Z,36.60
2019-03-23T14:13:22.093Z,36.50
2019-03-23T14:15:52.962Z,36.50
2019-03-23T14:18:24.468Z,36.40
2019-03-23T14:20:55.400Z,36.20
2019-03-23T14:23:26.298Z,36.30
2019-03-23T14:25:57.090Z,36.40
2019-03-23T14:28:27.909Z,36.40
2019-03-23T14:30:58.801Z,36.50
2019-03-23T14:33:29.635Z,36.40
2019-03-23T14:36:00.557Z,36.20
2019-03-23T14:38:31.360Z,36.10
2019-03-23T14:41:02.245Z,36.20
2019-03-23T14:43:33.093Z,36.10
2019-03-23T14:46:03.924Z,35.90
2019-03-23T14:48:38.862Z,35.80
2019-03-23T14:51:10.321Z,35.60
2019-03-23T14:53:41.186Z,35.50
2019-03-23T14:56:11.998Z,35.20
2019-03-23T14:58:42.837Z,34.90
2019-03-23T15:01:14.623Z,34.60
2019-03-23T15:03:45.405Z,34.10
2019-03-23T15:06:16.230Z,33.50
2019-03-23T15:08:47.185Z,32.70
2019-03-23T15:11:18.049Z,31.80
2019-03-23T15:13:49.001Z,30.90
2019-03-23T15:16:19.806Z,29.70
2019-03-23T15:18:50.706Z,28.70
2019-03-23T15:21:21.520Z,27.70
2019-03-23T15:23:52.623Z,27.00
2019-03-23T15:26:28.368Z,26.20
2019-03-23T15:29:01.212Z,25.50
2019-03-23T15:31:32.201Z,24.90
2019-03-23T15:34:03.733Z,24.20
2019-03-23T15:36:35.111Z,23.70
2019-03-23T15:39:07.532Z,23.20
2019-03-23T15:41:38.402Z,22.90
2019-03-23T15:44:10.871Z,22.50
2019-03-23T15:46:42.721Z,22.10
2019-03-23T15:49:13.952Z,21.90
2019-03-23T15:51:47.287Z,21.60
2019-03-23T15:54:18.330Z,21.30
2019-03-23T15:56:53.328Z,21.10
2019-03-23T15:59:24.146Z,20.90
2019-03-23T16:01:55.278Z,20.60
2019-03-23T16:04:26.218Z,20.40
2019-03-23T16:06:57.572Z,20.30
2019-03-23T16:09:28.803Z,20.10
2019-03-23T16:11:59.769Z,20.00
2019-03-23T16:14:30.870Z,19.90
2019-03-23T16:17:01.706Z,19.80
2019-03-23T16:19:34.931Z,19.60
2019-03-23T16:22:05.792Z,19.50
2019-03-23T16:24:36.604Z,19.40
2019-03-23T16:27:07.422Z,19.20
2019-03-23T16:29:38.284Z,19.10
2019-03-23T16:32:09.122Z,19.00
2019-03-23T16:34:39.937Z,18.80
2019-03-23T16:37:11.352Z,18.70
2019-03-23T16:39:42.192Z,18.60
2019-03-23T16:42:14.165Z,18.40
2019-03-23T16:44:48.536Z,18.30
2019-03-23T16:47:19.709Z,18.10
2019-03-23T16:49:50.557Z,18.00
2019-03-23T16:52:21.559Z,17.80
2019-03-23T16:54:53.399Z,17.70
2019-03-23T16:57:24.394Z,17.60
2019-03-23T16:59:55.323Z,17.40
2019-03-23T17:02:26.141Z,17.30
2019-03-23T17:04:56.958Z,17.10
2019-03-23T17:07:27.786Z,17.00
2019-03-23T17:09:58.542Z,16.80
2019-03-23T17:12:29.363Z,16.70
2019-03-23T17:15:00.347Z,16.60
2019-03-23T17:17:31.208Z,16.40
2019-03-23T17:20:02.026Z,16.30
2019-03-23T17:22:32.903Z,16.10
2019-03-23T17:25:04.901Z,16.00
2019-03-23T17:27:36.862Z,15.90
2019-03-23T17:30:07.705Z,15.70
2019-03-23T17:32:38.916Z,15.60
2019-03-23T17:35:09.774Z,15.50
2019-03-23T17:37:40.699Z,15.30
2019-03-23T17:40:11.574Z,15.20
2019-03-23T17:42:42.469Z,15.10
2019-03-23T17:45:13.385Z,15.10
2019-03-23T17:47:49.276Z,15.00
2019-03-23T17:50:23.593Z,14.90
2019-03-23T17:52:55.534Z,14.80
2019-03-23T17:55:26.297Z,14.70
2019-03-23T17:58:02.932Z,14.60
2019-03-23T18:00:40.243Z,14.50
2019-03-23T18:03:11.333Z,14.40
2019-03-23T18:05:42.614Z,14.40
2019-03-23T18:08:13.591Z,14.30
2019-03-23T18:10:44.785Z,14.20
2019-03-23T18:13:16.708Z,14.10
2019-03-23T18:15:47.795Z,14.00
2019-03-23T18:18:18.735Z,14.00
2019-03-23T18:20:49.666Z,13.90
2019-03-23T18:23:20.569Z,13.80
2019-03-23T18:25:51.461Z,13.80
2019-03-23T18:28:22.460Z,13.70
2019-03-23T18:30:56.434Z,13.60
2019-03-23T18:33:28.719Z,13.60
2019-03-23T18:35:59.999Z,13.50
2019-03-23T18:38:30.755Z,13.50
2019-03-23T18:41:01.614Z,13.50
2019-03-23T18:43:32.460Z,13.40
2019-03-23T18:46:03.765Z,13.30
2019-03-23T18:48:34.673Z,13.30
2019-03-23T18:51:05.466Z,13.20
2019-03-23T18:53:36.349Z,13.10
2019-03-23T18:56:07.162Z,13.00
2019-03-23T18:58:38.097Z,12.90
2019-03-23T19:01:08.897Z,12.90
2019-03-23T19:03:40.482Z,12.80
2019-03-23T19:06:11.334Z,12.80
2019-03-23T19:08:42.308Z,12.70
2019-03-23T19:11:14.933Z,12.70
2019-03-23T19:13:45.720Z,12.60
2019-03-23T19:16:16.504Z,12.50
2019-03-23T19:18:49.211Z,12.50
2019-03-23T19:21:19.801Z,12.40
2019-03-23T19:23:50.619Z,12.40
2019-03-23T19:26:21.374Z,12.30
2019-03-23T19:28:52.265Z,12.20
2019-03-23T19:31:23.115Z,12.20
2019-03-23T19:33:53.992Z,12.10
2019-03-23T19:36:24.818Z,12.10
2019-03-23T19:38:55.558Z,12.00
2019-03-23T19:41:26.410Z,12.00
2019-03-23T19:43:57.127Z,12.00
2019-03-23T19:46:27.954Z,11.90
2019-03-23T19:48:58.874Z,11.90
2019-03-23T19:51:29.670Z,11.80
2019-03-23T19:54:00.569Z,11.80
2019-03-23T19:56:31.394Z,11.70
2019-03-23T19:59:02.253Z,11.70
2019-03-23T20:01:33.131Z,11.70
2019-03-23T20:04:04.038Z,11.70
2019-03-23T20:06:34.849Z,11.70
2019-03-23T20:09:07.786Z,11.70
2019-03-23T20:11:38.655Z,11.70
2019-03-23T20:14:09.505Z,11.70
2019-03-23T20:16:40.343Z,11.70
2019-03-23T20:19:11.152Z,11.70
2019-03-23T20:21:41.932Z,11.70
2019-03-23T20:24:12.799Z,11.70
2019-03-23T20:26:43.653Z,11.70
2019-03-23T20:29:14.456Z,11.70
2019-03-23T20:31:45.623Z,11.60
2019-03-23T20:34:17.652Z,11.60
2019-03-23T20:36:48.584Z,11.60
2019-03-23T20:39:19.469Z,11.60
2019-03-23T20:41:50.257Z,11.60
2019-03-23T20:44:25.205Z,11.50
2019-03-23T20:46:55.972Z,11.50
2019-03-23T20:49:26.853Z,11.50
2019-03-23T20:51:57.717Z,11.50
2019-03-23T20:54:28.661Z,11.50
2019-03-23T20:56:59.456Z,11.40
2019-03-23T20:59:31.785Z,11.50
2019-03-23T21:02:02.777Z,11.40
2019-03-23T21:04:33.739Z,11.40
2019-03-23T21:07:04.574Z,11.40
2019-03-23T21:09:35.508Z,11.40
2019-03-23T21:12:06.428Z,11.40
2019-03-23T21:14:37.270Z,11.40
2019-03-23T21:17:08.178Z,11.40
2019-03-23T21:19:39.016Z,11.30
2019-03-23T21:22:09.982Z,11.30
2019-03-23T21:24:40.836Z,11.20
2019-03-23T21:27:11.713Z,11.20
2019-03-23T21:29:43.010Z,11.10
2019-03-23T21:32:13.820Z,11.10
2019-03-23T21:34:45.428Z,11.00
2019-03-23T21:37:16.469Z,11.00
2019-03-23T21:39:47.202Z,10.90
2019-03-23T21:42:18.162Z,10.90
2019-03-23T21:45:02.008Z,10.80
2019-03-23T21:47:32.946Z,10.80
2019-03-23T21:50:03.771Z,10.70
2019-03-23T21:52:35.098Z,10.70
2019-03-23T21:55:06.560Z,10.60
2019-03-23T21:57:37.572Z,10.60
2019-03-23T22:00:09.102Z,10.50
2019-03-23T22:02:39.880Z,10.50
2019-03-23T22:05:10.877Z,10.50
2019-03-23T22:07:41.767Z,10.40
2019-03-23T22:10:12.719Z,10.40
2019-03-23T22:12:43.545Z,10.30
2019-03-23T22:15:14.530Z,10.30
2019-03-23T22:17:45.557Z,10.20
2019-03-23T22:20:16.467Z,10.20
2019-03-23T22:22:47.378Z,10.20
2019-03-23T22:25:19.444Z,10.20
2019-03-23T22:27:50.444Z,10.20
2019-03-23T22:30:21.555Z,10.10
2019-03-23T22:32:52.570Z,10.10
2019-03-23T22:35:23.449Z,10.00
2019-03-23T22:37:54.274Z,10.00
2019-03-23T22:40:25.139Z,10.00
2019-03-23T22:42:56.042Z,10.00
2019-03-23T22:45:30.311Z,10.00
2019-03-23T22:48:02.919Z,10.00
2019-03-23T22:50:42.915Z,10.00
2019-03-23T22:53:13.849Z,9.90
2019-03-23T22:55:44.700Z,9.90
2019-03-23T22:58:15.534Z,9.90
2019-03-23T23:00:47.861Z,9.90
2019-03-23T23:03:18.962Z,9.90
2019-03-23T23:05:53.836Z,9.90
2019-03-23T23:08:24.791Z,9.90
2019-03-23T23:10:55.789Z,9.90
2019-03-23T23:13:26.948Z,9.80
2019-03-23T23:15:57.806Z,9.80
2019-03-23T23:18:28.552Z,9.80
2019-03-23T23:20:59.468Z,9.70
2019-03-23T23:23:30.404Z,9.70
2019-03-23T23:26:01.671Z,9.70
2019-03-23T23:28:56.874Z,9.70
2019-03-23T23:31:25.097Z,9.60
2019-03-23T23:33:56.205Z,9.60
2019-03-23T23:36:27.170Z,9.60
2019-03-23T23:38:57.946Z,9.50
2019-03-23T23:41:28.797Z,9.50
2019-03-23T23:44:00.744Z,9.50
2019-03-23T23:46:32.310Z,9.50
2019-03-23T23:49:04.014Z,9.40
2019-03-23T23:51:34.869Z,9.40
2019-03-23T23:54:08.097Z,9.40
2019-03-23T23:56:42.457Z,9.40
2019-03-23T23:59:13.518Z,9.40
